Time;durP1;ratioP1;P1;durP2;ratioP2;P2;SDS_P1;SDS_P2;PMS_P1;PMS_P2;Temp;Humidity;BMP_temperature;BMP_pressure;BME280_temperature;BME280_humidity;BME280_pressure;Samples;Min_cycle;Max_cycle;Signal;HPM_P1;HPM_P2
2022/12/30 00:02:08;;;;;;;7.30;2.05;;;14.40;95.10;;;;;;5071980;28;20481;-68
2022/12/30 00:04:33;;;;;;;7.40;1.98;;;14.40;94.90;;;;;;5071252;28;20028;-69
2022/12/30 00:07:00;;;;;;;8.40;2.03;;;14.30;94.80;;;;;;5072415;28;20028;-68
2022/12/30 00:09:26;;;;;;;9.57;2.03;;;14.20;94.60;;;;;;5072264;28;20519;-69
2022/12/30 00:11:51;;;;;;;8.68;1.88;;;14.20;94.50;;;;;;5072131;28;20033;-68
2022/12/30 00:34:03;;;;;;;5.22;1.70;;;14.10;95.00;;;;;;5076168;28;20135;-68
2022/12/30 00:36:30;;;;;;;9.75;2.20;;;13.90;94.80;;;;;;5075899;28;20074;-66
2022/12/30 00:38:56;;;;;;;9.68;2.15;;;13.80;94.70;;;;;;5076027;28;20077;-68
2022/12/30 00:44:06;;;;;;;7.28;2.28;;;13.90;95.10;;;;;;5076158;28;20075;-68
2022/12/30 00:46:34;;;;;;;8.30;2.10;;;14.00;95.00;;;;;;5075567;28;20477;-67
2022/12/30 00:57:12;;;;;;;7.25;2.33;;;13.80;94.70;;;;;;5075923;28;20090;-67
2022/12/30 00:59:37;;;;;;;8.25;2.17;;;13.60;94.40;;;;;;5075548;28;20024;-68
2022/12/30 01:02:03;;;;;;;10.30;2.35;;;13.50;93.90;;;;;;5075417;28;20037;-68
2022/12/30 01:04:28;;;;;;;9.73;2.13;;;13.50;94.30;;;;;;5075565;28;20028;-68
2022/12/30 01:06:55;;;;;;;11.27;1.85;;;13.40;93.90;;;;;;5075226;28;20024;-68
2022/12/30 01:09:21;;;;;;;12.05;2.63;;;13.30;94.30;;;;;;5075663;28;20024;-67
2022/12/30 01:12:07;;;;;;;12.50;2.53;;;13.40;94.30;;;;;;5075221;28;20041;-67
2022/12/30 01:14:38;;;;;;;11.07;3.03;;;13.50;94.70;;;;;;5075335;28;20479;-67
2022/12/30 01:17:05;;;;;;;9.27;2.10;;;13.50;94.80;;;;;;5075236;28;20082;-68
2022/12/30 01:19:31;;;;;;;12.82;2.17;;;13.40;94.30;;;;;;5075322;28;20036;-67
2022/12/30 01:21:57;;;;;;;9.52;1.70;;;13.20;94.20;;;;;;5075016;28;20016;-68
2022/12/30 01:24:23;;;;;;;10.10;2.65;;;13.30;94.20;;;;;;5074906;28;20496;-68
2022/12/30 01:26:48;;;;;;;7.03;2.08;;;13.40;94.60;;;;;;5075347;28;20047;-67
2022/12/30 01:29:41;;;;;;;14.77;2.45;;;13.40;94.50;;;;;;5074803;28;20462;-68
2022/12/30 01:32:10;;;;;;;8.43;2.08;;;13.10;94.10;;;;;;5073576;28;20048;-67
2022/12/30 01:34:35;;;;;;;7.95;2.55;;;13.10;94.10;;;;;;5074551;28;20020;-68
2022/12/30 01:37:02;;;;;;;12.43;2.50;;;13.30;94.80;;;;;;5075064;28;20039;-68
2022/12/30 01:39:27;;;;;;;7.72;2.28;;;13.00;94.30;;;;;;5074293;28;20074;-68
2022/12/30 01:41:54;;;;;;;9.95;2.38;;;13.10;94.20;;;;;;5075100;28;20021;-67
2022/12/30 01:44:39;;;;;;;8.57;2.00;;;13.20;94.40;;;;;;5074951;28;20024;-68
2022/12/30 01:47:04;;;;;;;10.05;2.83;;;12.80;93.60;;;;;;5073144;28;20542;-68
2022/12/30 01:49:31;;;;;;;12.30;2.55;;;12.70;93.70;;;;;;5074014;28;20032;-68
2022/12/30 01:51:56;;;;;;;9.90;2.00;;;12.50;93.50;;;;;;5074716;28;20032;-68
2022/12/30 01:54:22;;;;;;;10.82;2.63;;;12.50;93.70;;;;;;5074579;28;20017;-67
2022/12/30 01:56:48;;;;;;;9.73;2.42;;;12.10;93.70;;;;;;5074699;28;20477;-68
2022/12/30 01:59:19;;;;;;;11.50;2.65;;;12.20;94.10;;;;;;5074352;28;20025;-68
2022/12/30 02:01:47;;;;;;;7.28;2.10;;;12.20;93.90;;;;;;5074683;28;20390;-67
2022/12/30 02:04:21;;;;;;;9.57;2.75;;;12.10;94.30;;;;;;5073026;28;20485;-68
2022/12/30 02:07:01;;;;;;;8.18;2.58;;;12.10;94.10;;;;;;5074507;28;20050;-68
2022/12/30 02:09:29;;;;;;;13.35;2.92;;;12.00;94.10;;;;;;5073158;28;20116;-68
2022/12/30 02:11:55;;;;;;;7.65;1.80;;;12.00;94.00;;;;;;5074330;28;20044;-68
2022/12/30 02:14:22;;;;;;;11.98;2.65;;;11.90;94.30;;;;;;5074240;28;20052;-68
2022/12/30 02:17:21;;;;;;;5.72;1.83;;;12.00;94.10;;;;;;5074194;28;20050;-68
2022/12/30 02:19:56;;;;;;;10.02;2.65;;;12.10;94.20;;;;;;5073740;28;20562;-68
2022/12/30 02:22:46;;;;;;;8.35;2.58;;;12.00;94.40;;;;;;5074289;28;20469;-68
2022/12/30 02:25:42;;;;;;;8.50;2.05;;;12.20;94.50;;;;;;5072653;28;20023;-68
2022/12/30 02:28:23;;;;;;;12.40;2.63;;;12.50;94.80;;;;;;5074165;28;20056;-67
2022/12/30 02:31:07;;;;;;;8.98;2.70;;;12.40;94.60;;;;;;5073327;28;20032;-68
2022/12/30 02:33:49;;;;;;;6.97;2.38;;;12.20;94.20;;;;;;5073623;28;20528;-68
2022/12/30 02:36:26;;;;;;;9.87;3.10;;;12.40;94.50;;;;;;5073087;28;20020;-68
2022/12/30 02:39:21;;;;;;;14.38;2.97;;;12.10;94.30;;;;;;5073924;28;20279;-68
2022/12/30 02:44:54;;;;;;;11.52;2.72;;;12.00;94.50;;;;;;5054062;28;20389;-68
2022/12/30 02:47:40;;;;;;;13.88;3.38;;;11.90;94.60;;;;;;5053437;28;20032;-68
2022/12/30 02:52:59;;;;;;;;;;;12.00;94.40;;;;;;5053978;28;20403;-67
2022/12/30 02:55:25;;;;;;;10.10;2.65;;;11.80;94.20;;;;;;5066699;28;19915;-68
2022/12/30 02:57:50;;;;;;;11.45;2.55;;;12.10;95.40;;;;;;5073106;28;20028;-68
2022/12/30 03:07:00;;;;;;;14.70;3.28;;;12.40;95.20;;;;;;5073274;28;20073;-67
2022/12/30 03:13:21;;;;;;;10.45;2.47;;;12.40;95.10;;;;;;5072517;28;20102;-68
2022/12/30 03:16:08;;;;;;;10.50;2.78;;;12.50;95.40;;;;;;5072938;28;20494;-68
2022/12/30 03:18:35;;;;;;;11.30;2.75;;;12.40;95.20;;;;;;5072993;28;20020;-68
2022/12/30 03:21:04;;;;;;;15.05;3.08;;;12.20;95.00;;;;;;5071565;28;20473;-68
2022/12/30 03:29:04;;;;;;;12.52;2.70;;;12.10;95.50;;;;;;5053242;28;20052;-68
2022/12/30 03:31:30;;;;;;;18.15;3.10;;;12.00;94.90;;;;;;5051233;28;20505;-68
2022/12/30 03:33:56;;;;;;;11.48;3.55;;;11.80;95.00;;;;;;5052852;28;20084;-68
2022/12/30 03:36:32;;;;;;;10.73;2.83;;;11.80;95.40;;;;;;5052756;28;20048;-68
2022/12/30 03:39:27;;;;;;;13.15;2.80;;;11.70;95.20;;;;;;5051468;28;20032;-68
2022/12/30 03:41:53;;;;;;;8.55;2.63;;;12.00;95.30;;;;;;5055431;28;20040;-68
2022/12/30 03:44:20;;;;;;;18.48;3.45;;;12.10;95.40;;;;;;5072901;28;20028;-68
2022/12/30 03:46:47;;;;;;;11.32;2.65;;;11.90;95.10;;;;;;5072713;28;20047;-69
2022/12/30 03:49:13;;;;;;;8.00;2.55;;;11.90;95.00;;;;;;5057601;28;20492;-68
2022/12/30 03:51:39;;;;;;;11.68;2.80;;;11.90;95.20;;;;;;5052494;28;20040;-68
2022/12/30 03:54:05;;;;;;;10.23;2.95;;;12.00;95.30;;;;;;5050664;28;20025;-68
2022/12/30 03:56:31;;;;;;;10.52;3.10;;;11.80;95.00;;;;;;5057889;28;20371;-68
2022/12/30 03:58:56;;;;;;;11.40;3.15;;;11.60;95.00;;;;;;5072029;28;20158;-68
2022/12/30 04:01:22;;;;;;;10.07;2.92;;;11.50;95.20;;;;;;5071991;28;20059;-68
2022/12/30 04:03:48;;;;;;;10.88;3.05;;;11.60;95.20;;;;;;5071138;28;20024;-68
2022/12/30 04:06:13;;;;;;;15.25;2.83;;;11.50;95.20;;;;;;5072482;28;20024;-68
2022/12/30 04:08:39;;;;;;;11.18;3.40;;;11.20;95.40;;;;;;5071193;28;20025;-68
2022/12/30 04:11:05;;;;;;;7.18;2.42;;;11.40;95.70;;;;;;5071039;28;20024;-68
2022/12/30 04:13:30;;;;;;;11.73;2.45;;;11.50;95.70;;;;;;5071943;28;20535;-68
2022/12/30 04:15:56;;;;;;;9.60;2.53;;;11.60;95.50;;;;;;5072359;28;20025;-68
2022/12/30 04:18:22;;;;;;;13.40;3.20;;;11.60;95.70;;;;;;5072363;28;20040;-68
2022/12/30 04:20:48;;;;;;;11.32;3.15;;;11.50;95.60;;;;;;5072374;28;20545;-68
2022/12/30 04:23:14;;;;;;;9.02;2.45;;;11.60;95.50;;;;;;5072210;28;20039;-68
2022/12/30 04:25:40;;;;;;;8.90;3.05;;;11.60;95.60;;;;;;5072186;28;20096;-68
2022/12/30 04:28:06;;;;;;;8.75;2.60;;;11.60;95.90;;;;;;5071946;28;20151;-68
2022/12/30 04:30:33;;;;;;;10.02;2.75;;;11.50;95.70;;;;;;5072070;28;20029;-68
2022/12/30 04:32:58;;;;;;;8.77;2.20;;;11.60;96.00;;;;;;5070676;28;20082;-68
2022/12/30 04:35:24;;;;;;;9.10;2.88;;;11.40;95.90;;;;;;5072213;28;20021;-68
2022/12/30 04:37:50;;;;;;;11.63;2.63;;;11.60;96.20;;;;;;5071782;28;20029;-68
2022/12/30 04:40:16;;;;;;;9.20;2.67;;;11.50;96.10;;;;;;5072109;28;20109;-68
2022/12/30 04:42:42;;;;;;;8.02;2.75;;;11.50;96.10;;;;;;5072122;28;20130;-68
2022/12/30 04:45:09;;;;;;;8.60;2.47;;;11.60;96.20;;;;;;5071600;28;20096;-68
2022/12/30 04:47:35;;;;;;;11.98;3.30;;;11.50;96.00;;;;;;5072174;28;20085;-68
2022/12/30 04:50:00;;;;;;;12.80;3.50;;;11.50;96.10;;;;;;5071941;28;20473;-68
2022/12/30 04:52:26;;;;;;;10.68;2.80;;;11.40;96.00;;;;;;5072068;28;20043;-68
2022/12/30 04:54:52;;;;;;;10.13;2.38;;;11.30;96.00;;;;;;5071937;28;20052;-68
2022/12/30 04:57:18;;;;;;;7.75;2.30;;;11.50;96.20;;;;;;5071780;28;20457;-68
2022/12/30 04:59:43;;;;;;;11.80;2.45;;;11.60;96.20;;;;;;5074003;28;20029;-68
2022/12/30 05:02:09;;;;;;;9.27;2.42;;;11.60;96.00;;;;;;5075725;28;20094;-68
2022/12/30 05:04:35;;;;;;;14.23;2.83;;;11.80;96.60;;;;;;5075388;28;20039;-68
2022/12/30 05:07:01;;;;;;;10.70;2.80;;;11.60;96.00;;;;;;5075783;28;20020;-68
2022/12/30 05:09:27;;;;;;;9.35;2.38;;;11.50;96.00;;;;;;5075378;28;20032;-68
2022/12/30 05:11:53;;;;;;;8.02;2.58;;;11.60;96.30;;;;;;5075219;28;20024;-68
2022/12/30 05:14:18;;;;;;;14.98;2.90;;;11.70;96.60;;;;;;5075287;28;20410;-68
2022/12/30 05:16:44;;;;;;;11.30;2.78;;;11.60;96.20;;;;;;5075593;28;20477;-68
2022/12/30 05:19:09;;;;;;;8.70;3.08;;;11.80;96.30;;;;;;5075318;28;20043;-68
2022/12/30 05:21:35;;;;;;;13.23;3.05;;;11.60;96.40;;;;;;5075290;28;20082;-68
2022/12/30 05:26:45;;;;;;;11.50;2.80;;;11.40;96.40;;;;;;5075428;28;20147;-68
2022/12/30 05:29:10;;;;;;;9.52;2.83;;;11.50;96.60;;;;;;5075080;28;20099;-69
2022/12/30 05:31:36;;;;;;;9.15;2.28;;;11.60;96.70;;;;;;5075090;28;20079;-68
2022/12/30 05:34:01;;;;;;;14.35;3.05;;;11.60;96.50;;;;;;5075066;28;20048;-69
2022/12/30 05:36:27;;;;;;;9.45;2.53;;;11.50;96.60;;;;;;5075098;28;20032;-68
2022/12/30 05:38:52;;;;;;;9.27;2.83;;;11.80;97.00;;;;;;5075025;28;20458;-69
2022/12/30 05:41:18;;;;;;;11.35;3.10;;;11.70;96.60;;;;;;5074685;28;20028;-68
2022/12/30 05:43:43;;;;;;;9.50;2.15;;;11.60;96.60;;;;;;5075270;28;20036;-68
2022/12/30 05:46:09;;;;;;;11.90;3.38;;;11.60;96.80;;;;;;5075005;28;20024;-68
2022/12/30 05:48:34;;;;;;;11.75;3.33;;;11.60;96.80;;;;;;5074928;28;20032;-68
2022/12/30 05:51:00;;;;;;;11.95;3.20;;;11.50;96.60;;;;;;5073241;28;20066;-68
2022/12/30 05:53:25;;;;;;;8.82;3.30;;;11.40;96.80;;;;;;5074702;28;20094;-69
2022/12/30 05:55:52;;;;;;;14.13;2.88;;;11.40;96.80;;;;;;5074506;28;20028;-68
2022/12/30 05:58:18;;;;;;;14.45;3.50;;;11.40;96.80;;;;;;5074734;28;20024;-69
2022/12/30 06:00:44;;;;;;;12.55;3.47;;;11.30;96.30;;;;;;5071035;28;20102;-69
2022/12/30 06:03:09;;;;;;;10.80;3.38;;;11.00;95.80;;;;;;5069601;28;20550;-69
2022/12/30 06:05:35;;;;;;;11.10;3.33;;;10.90;95.80;;;;;;5072803;28;20075;-68
2022/12/30 06:08:00;;;;;;;9.85;3.72;;;10.90;95.60;;;;;;5072651;28;20017;-69
2022/12/30 06:10:26;;;;;;;9.85;3.00;;;10.90;95.70;;;;;;5073100;28;20025;-69
2022/12/30 06:12:51;;;;;;;8.90;2.95;;;10.80;95.80;;;;;;5074299;28;20557;-69
2022/12/30 06:15:17;;;;;;;10.65;3.67;;;10.80;95.80;;;;;;5073985;28;20031;-69
2022/12/30 06:17:42;;;;;;;13.15;3.00;;;10.70;95.90;;;;;;5074498;28;20035;-69
2022/12/30 06:20:08;;;;;;;15.02;4.00;;;10.80;96.00;;;;;;5074013;28;20029;-68
2022/12/30 06:22:34;;;;;;;12.73;4.07;;;10.60;96.10;;;;;;5074176;28;20032;-69
2022/12/30 06:24:59;;;;;;;10.30;3.35;;;10.70;96.00;;;;;;5073744;28;20036;-69
2022/12/30 06:27:25;;;;;;;10.65;4.05;;;10.60;96.10;;;;;;5072779;28;20020;-69
2022/12/30 06:29:51;;;;;;;9.48;3.50;;;10.80;95.90;;;;;;5073994;28;20032;-69
2022/12/30 06:32:16;;;;;;;7.90;2.67;;;11.00;95.70;;;;;;5073889;28;20040;-69
2022/12/30 06:34:42;;;;;;;9.43;2.58;;;11.00;95.80;;;;;;5073753;28;20069;-69
2022/12/30 06:37:09;;;;;;;11.65;3.72;;;11.00;95.90;;;;;;5074091;28;20055;-69
2022/12/30 06:39:34;;;;;;;9.20;3.08;;;10.90;96.00;;;;;;5069079;28;20095;-69
2022/12/30 06:42:00;;;;;;;8.70;3.05;;;11.00;95.90;;;;;;5071864;28;20047;-69
2022/12/30 06:44:25;;;;;;;12.05;2.85;;;11.20;95.70;;;;;;5069848;28;20035;-69
2022/12/30 06:46:51;;;;;;;8.30;3.15;;;10.90;96.00;;;;;;5068289;28;20504;-69
2022/12/30 06:49:16;;;;;;;10.25;2.80;;;11.00;95.80;;;;;;5066694;28;20031;-69
2022/12/30 06:51:42;;;;;;;9.25;2.65;;;11.20;96.10;;;;;;5069469;28;20035;-69
2022/12/30 06:54:07;;;;;;;8.82;2.80;;;11.20;96.00;;;;;;5062990;28;20455;-69
2022/12/30 06:56:33;;;;;;;10.30;2.55;;;11.20;96.00;;;;;;5068644;28;20461;-69
2022/12/30 06:58:59;;;;;;;7.28;2.45;;;11.10;96.10;;;;;;5068559;28;20386;-69
2022/12/30 07:01:24;;;;;;;7.63;2.20;;;10.90;96.30;;;;;;5073454;28;20359;-69
2022/12/30 07:03:50;;;;;;;9.00;2.13;;;11.10;96.30;;;;;;5070239;28;20044;-69
2022/12/30 07:06:15;;;;;;;10.23;2.80;;;11.30;96.20;;;;;;5072106;28;20028;-69
2022/12/30 07:08:41;;;;;;;8.50;1.98;;;11.40;95.80;;;;;;5071806;28;20024;-69
2022/12/30 07:11:06;;;;;;;10.20;2.17;;;11.50;95.90;;;;;;5069226;28;20393;-69
2022/12/30 07:13:32;;;;;;;7.63;2.15;;;11.40;95.90;;;;;;5073023;28;20039;-69
2022/12/30 07:15:57;;;;;;;5.95;1.95;;;11.20;95.90;;;;;;5073100;28;20066;-69
2022/12/30 07:18:23;;;;;;;9.73;2.15;;;11.30;96.10;;;;;;5073036;28;20036;-69
2022/12/30 07:20:49;;;;;;;9.35;2.60;;;11.20;96.10;;;;;;5072292;28;20021;-68
2022/12/30 07:23:15;;;;;;;8.82;2.38;;;11.40;96.10;;;;;;5070970;28;20420;-69
2022/12/30 07:25:40;;;;;;;6.50;2.05;;;11.30;96.10;;;;;;5070492;28;20030;-69
2022/12/30 07:28:06;;;;;;;8.57;2.05;;;11.30;96.20;;;;;;5072883;28;20497;-69
2022/12/30 07:30:32;;;;;;;8.13;2.25;;;11.50;96.10;;;;;;5071384;28;20078;-68
2022/12/30 07:32:58;;;;;;;6.65;2.22;;;11.60;96.20;;;;;;5072513;28;20473;-69
2022/12/30 07:35:24;;;;;;;6.53;2.33;;;11.50;95.80;;;;;;5070694;28;20096;-68
2022/12/30 07:37:51;;;;;;;10.45;2.42;;;11.60;96.10;;;;;;5071630;28;20033;-69
2022/12/30 07:40:17;;;;;;;8.45;2.83;;;11.50;96.10;;;;;;5070363;28;20021;-69
2022/12/30 07:42:42;;;;;;;6.57;2.38;;;11.60;96.00;;;;;;5071117;28;20040;-69
2022/12/30 07:45:09;;;;;;;10.00;2.97;;;11.50;96.10;;;;;;5072199;28;20028;-69
2022/12/30 07:47:36;;;;;;;7.43;2.65;;;11.40;96.20;;;;;;5072266;28;20098;-69
2022/12/30 07:50:04;;;;;;;5.72;2.13;;;11.40;96.40;;;;;;5071425;28;20019;-69
2022/12/30 07:52:30;;;;;;;6.38;2.17;;;11.50;96.40;;;;;;5069952;28;20036;-69
2022/12/30 07:54:56;;;;;;;6.65;2.08;;;11.50;96.20;;;;;;5062442;28;20071;-69
2022/12/30 07:57:21;;;;;;;6.18;1.80;;;11.50;96.50;;;;;;5064924;28;20051;-69
2022/12/30 07:59:47;;;;;;;7.13;2.20;;;11.50;96.30;;;;;;5060443;28;20024;-69
2022/12/30 08:02:13;;;;;;;6.20;1.88;;;11.50;96.20;;;;;;5067548;28;20397;-69
2022/12/30 08:04:39;;;;;;;6.07;1.95;;;11.30;96.30;;;;;;5063500;28;20015;-69
2022/12/30 08:07:05;;;;;;;7.93;1.67;;;11.30;96.10;;;;;;5059499;28;20029;-69
2022/12/30 08:09:31;;;;;;;12.02;2.63;;;11.20;96.40;;;;;;5068008;28;20060;-69
2022/12/30 08:11:56;;;;;;;5.72;2.45;;;11.40;96.10;;;;;;5069510;28;20044;-69
2022/12/30 08:14:22;;;;;;;5.82;2.00;;;11.30;96.40;;;;;;5071270;28;20021;-69
2022/12/30 08:16:48;;;;;;;7.43;2.17;;;11.40;96.40;;;;;;5068582;28;20024;-69
2022/12/30 08:19:13;;;;;;;8.40;2.00;;;11.30;96.20;;;;;;5071179;28;20024;-68
2022/12/30 08:21:39;;;;;;;6.88;2.25;;;11.30;96.40;;;;;;5068805;28;20036;-69
2022/12/30 08:24:05;;;;;;;7.60;2.78;;;11.20;96.80;;;;;;5071516;28;20036;-69
2022/12/30 08:26:31;;;;;;;7.07;1.55;;;11.20;96.70;;;;;;5071518;28;20072;-69
2022/12/30 08:28:56;;;;;;;6.22;1.88;;;11.00;96.90;;;;;;5068797;28;20039;-69
2022/12/30 08:31:25;;;;;;;6.53;1.98;;;11.30;98.00;;;;;;5071307;28;20503;-69
2022/12/30 08:33:51;;;;;;;4.30;1.70;;;11.60;97.80;;;;;;5072548;28;20076;-68
2022/12/30 08:36:20;;;;;;;7.65;2.08;;;11.50;96.90;;;;;;5072769;28;20111;-69
2022/12/30 08:38:49;;;;;;;7.72;1.60;;;11.40;96.60;;;;;;5074080;28;20045;-68
2022/12/30 08:41:22;;;;;;;4.38;2.03;;;11.40;96.50;;;;;;5075903;28;20013;-68
2022/12/30 08:43:49;;;;;;;10.15;2.72;;;11.40;96.50;;;;;;5065834;28;20057;-69
2022/12/30 08:46:15;;;;;;;7.30;2.33;;;11.30;96.50;;;;;;5071590;28;20466;-70
2022/12/30 08:48:41;;;;;;;8.98;2.50;;;11.10;96.80;;;;;;5074038;28;20024;-67
2022/12/30 08:51:07;;;;;;;6.55;2.22;;;11.00;97.20;;;;;;5072344;28;20033;-69
2022/12/30 08:53:33;;;;;;;12.23;2.92;;;11.00;97.40;;;;;;5072733;28;20039;-71
2022/12/30 08:56:15;;;;;;;9.88;2.22;;;11.00;97.50;;;;;;5073345;28;20081;-69
2022/12/30 08:58:40;;;;;;;9.40;2.13;;;11.10;97.70;;;;;;5072017;28;20028;-68
2022/12/30 09:01:12;;;;;;;7.78;1.60;;;11.20;97.70;;;;;;5074288;28;20499;-68
2022/12/30 09:03:39;;;;;;;7.40;2.20;;;11.10;97.40;;;;;;5072924;28;20077;-68
2022/12/30 09:06:05;;;;;;;6.97;2.20;;;11.00;98.30;;;;;;5073228;28;20040;-68
2022/12/30 09:08:31;;;;;;;12.73;1.95;;;11.10;98.80;;;;;;5071311;28;20033;-68
2022/12/30 09:11:01;;;;;;;7.60;2.10;;;11.40;99.20;;;;;;5073981;28;20021;-67
2022/12/30 09:13:28;;;;;;;8.02;1.70;;;11.40;98.80;;;;;;5075303;28;20028;-67
2022/12/30 09:15:53;;;;;;;4.97;1.60;;;11.50;99.20;;;;;;5075500;28;20099;-67
2022/12/30 09:18:19;;;;;;;5.32;1.70;;;11.70;99.20;;;;;;5075244;28;20060;-67
2022/12/30 09:20:45;;;;;;;7.50;1.58;;;11.80;99.10;;;;;;5075263;28;20024;-67
2022/12/30 09:23:10;;;;;;;6.53;1.67;;;11.90;99.10;;;;;;5073967;28;20078;-67
2022/12/30 09:25:36;;;;;;;5.43;1.35;;;12.00;99.40;;;;;;5075148;28;20489;-67
2022/12/30 09:28:01;;;;;;;6.28;1.85;;;12.00;99.00;;;;;;5075328;28;20473;-67
2022/12/30 09:30:27;;;;;;;6.72;1.40;;;12.00;99.20;;;;;;5075090;28;20039;-67
2022/12/30 09:32:53;;;;;;;6.85;1.60;;;12.10;99.30;;;;;;5074763;28;20041;-66
2022/12/30 09:35:18;;;;;;;5.65;1.88;;;12.10;99.10;;;;;;5075111;28;20099;-68
2022/12/30 09:37:44;;;;;;;7.30;2.55;;;12.10;99.10;;;;;;5075025;28;20154;-67
2022/12/30 09:40:24;;;;;;;6.00;2.60;;;12.10;98.90;;;;;;5074910;28;20099;-67
2022/12/30 09:46:13;;;;;;;8.52;2.35;;;12.40;99.30;;;;;;5069315;28;20497;-67
2022/12/30 09:48:44;;;;;;;7.65;1.90;;;12.30;99.20;;;;;;5054383;28;20087;-67
2022/12/30 09:51:25;;;;;;;8.40;1.95;;;12.30;98.80;;;;;;5054270;28;20464;-67
2022/12/30 09:53:55;;;;;;;3.85;1.67;;;12.30;99.00;;;;;;5054660;28;20025;-66
2022/12/30 09:56:28;;;;;;;6.13;1.98;;;12.40;99.00;;;;;;5057368;28;20482;-67
2022/12/30 09:58:55;;;;;;;6.05;1.67;;;12.40;99.00;;;;;;5073583;28;20032;-67
2022/12/30 10:01:23;;;;;;;8.75;2.20;;;12.30;98.80;;;;;;5073234;28;20065;-68
2022/12/30 10:03:52;;;;;;;5.43;1.70;;;12.40;98.80;;;;;;5073473;28;20466;-67
2022/12/30 10:06:25;;;;;;;7.65;1.88;;;12.30;98.60;;;;;;5073105;28;20024;-67
2022/12/30 10:09:26;;;;;;;7.47;1.73;;;12.50;98.80;;;;;;5073281;28;20031;-67
2022/12/30 10:11:55;;;;;;;6.50;1.43;;;12.50;98.40;;;;;;5071689;28;20037;-68
2022/12/30 10:14:29;;;;;;;6.72;1.30;;;12.60;98.60;;;;;;5068751;28;20161;-68
2022/12/30 10:17:04;;;;;;;7.63;2.30;;;12.80;98.60;;;;;;5068022;28;20389;-66
2022/12/30 10:19:47;;;;;;;7.97;1.90;;;12.80;98.10;;;;;;5057354;28;20031;-66
2022/12/30 10:22:40;;;;;;;7.50;1.90;;;12.80;97.80;;;;;;5066223;28;20029;-67
2022/12/30 10:25:24;;;;;;;7.40;2.00;;;12.80;97.50;;;;;;5062511;28;20044;-66
2022/12/30 10:27:54;;;;;;;8.73;1.70;;;12.90;97.80;;;;;;5073432;28;20539;-66
2022/12/30 10:30:23;;;;;;;5.68;1.40;;;12.80;97.30;;;;;;5072135;28;20135;-67
2022/12/30 10:33:23;;;;;;;6.25;1.52;;;12.90;97.40;;;;;;5072330;28;20043;-67
2022/12/30 10:35:58;;;;;;;8.32;1.83;;;12.90;97.10;;;;;;5072931;28;20461;-66
2022/12/30 10:38:30;;;;;;;7.68;2.25;;;13.00;96.90;;;;;;5071158;28;20051;-66
2022/12/30 10:41:28;;;;;;;9.65;3.90;;;13.00;96.50;;;;;;5072806;28;20020;-66
2022/12/30 10:44:15;;;;;;;21.20;4.35;;;13.00;96.40;;;;;;5072712;28;20021;-66
2022/12/30 10:46:52;;;;;;;9.57;2.33;;;13.00;96.20;;;;;;5071580;28;20107;-66
2022/12/30 10:49:30;;;;;;;11.60;3.00;;;13.00;96.30;;;;;;5072457;28;20025;-67
2022/12/30 10:51:56;;;;;;;7.55;2.30;;;13.00;96.40;;;;;;5067097;28;20036;-66
2022/12/30 10:54:22;;;;;;;11.25;2.60;;;12.90;96.30;;;;;;5064803;28;20523;-68
2022/12/30 10:56:49;;;;;;;13.93;2.92;;;12.90;96.60;;;;;;5069421;28;20040;-64
2022/12/30 10:59:22;;;;;;;11.30;2.65;;;12.90;96.70;;;;;;5069532;28;20017;-65
2022/12/30 11:01:51;;;;;;;8.23;2.20;;;12.90;96.80;;;;;;5070265;28;20497;-64
2022/12/30 11:04:36;;;;;;;11.60;2.70;;;12.90;97.00;;;;;;5069602;28;20423;-65
2022/12/30 11:07:05;;;;;;;14.75;3.45;;;13.00;97.40;;;;;;5061724;28;20025;-65
2022/12/30 11:09:31;;;;;;;7.55;2.65;;;13.00;97.50;;;;;;5067711;28;20028;-64
2022/12/30 11:14:53;;;;;;;13.77;3.35;;;13.10;97.80;;;;;;5071688;28;20505;-64
2022/12/30 11:17:26;;;;;;;14.13;2.42;;;13.20;98.00;;;;;;5071626;28;20021;-64
2022/12/30 11:19:55;;;;;;;11.50;2.30;;;13.30;98.10;;;;;;5070516;28;20082;-64
2022/12/30 11:22:22;;;;;;;12.35;2.58;;;13.30;98.20;;;;;;5070695;28;20039;-63
2022/12/30 11:25:13;;;;;;;8.80;2.35;;;13.30;98.10;;;;;;5069215;28;20032;-64
2022/12/30 11:27:43;;;;;;;8.75;2.75;;;13.40;98.30;;;;;;5070576;28;20024;-64
2022/12/30 11:30:24;;;;;;;11.02;2.65;;;13.40;98.40;;;;;;5071031;28;20028;-64
2022/12/30 11:32:50;;;;;;;10.38;2.97;;;13.40;98.80;;;;;;5081613;28;20617;-64
2022/12/30 11:35:44;;;;;;;12.70;3.50;;;13.30;98.80;;;;;;5072016;28;20112;-64
2022/12/30 11:38:33;;;;;;;10.57;3.00;;;13.40;99.30;;;;;;5071304;28;20095;-64
2022/12/30 11:41:17;;;;;;;10.35;3.15;;;13.40;99.90;;;;;;5070717;28;20031;-64
2022/12/30 11:43:51;;;;;;;11.65;4.45;;;13.50;99.90;;;;;;5066569;28;20179;-64
2022/12/30 11:46:22;;;;;;;16.25;6.22;;;13.50;99.90;;;;;;5070041;28;20028;-64
2022/12/30 11:48:50;;;;;;;15.02;4.90;;;13.60;99.90;;;;;;5068426;28;20089;-66
2022/12/30 11:51:27;;;;;;;9.13;3.83;;;13.60;99.90;;;;;;5060201;28;20021;-63
2022/12/30 11:54:05;;;;;;;10.90;3.50;;;13.50;99.90;;;;;;5070615;28;20485;-66
2022/12/30 11:56:31;;;;;;;12.63;3.45;;;13.50;99.90;;;;;;5070611;28;20039;-65
2022/12/30 11:59:06;;;;;;;7.97;2.88;;;13.50;99.90;;;;;;5070043;28;20033;-65
2022/12/30 12:01:45;;;;;;;8.50;2.85;;;13.50;99.90;;;;;;5067932;28;20028;-65
2022/12/30 12:04:32;;;;;;;10.90;2.97;;;13.60;99.90;;;;;;5069774;28;20061;-65
2022/12/30 12:06:59;;;;;;;9.32;2.15;;;13.50;99.90;;;;;;5068382;28;20028;-66
2022/12/30 12:09:32;;;;;;;5.72;1.60;;;13.40;99.90;;;;;;5069616;28;20025;-66
2022/12/30 12:11:59;;;;;;;8.70;2.15;;;13.40;99.90;;;;;;5070258;28;20036;-66
2022/12/30 12:14:56;;;;;;;6.40;1.50;;;13.40;99.90;;;;;;5070850;28;20020;-67
2022/12/30 12:17:41;;;;;;;6.25;1.77;;;13.40;99.90;;;;;;5070148;28;20652;-66
2022/12/30 12:20:25;;;;;;;9.18;1.98;;;13.40;99.90;;;;;;5071370;28;20025;-65
2022/12/30 12:23:05;;;;;;;5.38;1.80;;;13.40;99.90;;;;;;5068821;28;20075;-66
2022/12/30 12:25:37;;;;;;;3.05;0.93;;;13.50;99.90;;;;;;5071192;28;20465;-64
2022/12/30 12:28:03;;;;;;;3.50;1.15;;;13.40;99.90;;;;;;5063364;28;20392;-64
2022/12/30 12:30:48;;;;;;;5.20;1.60;;;13.40;99.90;;;;;;5068656;28;20485;-65
2022/12/30 12:33:13;;;;;;;5.85;1.60;;;13.10;99.90;;;;;;5070812;28;20470;-66
2022/12/30 12:35:58;;;;;;;4.00;1.27;;;13.00;99.90;;;;;;5069094;28;20020;-64
2022/12/30 12:38:57;;;;;;;6.53;1.75;;;12.80;99.90;;;;;;5066186;28;20033;-64
2022/12/30 12:41:34;;;;;;;15.48;1.98;;;13.00;99.90;;;;;;5066806;28;20256;-65
2022/12/30 12:44:44;;;;;;;4.95;1.00;;;13.20;99.90;;;;;;5068981;28;20036;-66
2022/12/30 12:47:28;;;;;;;6.70;1.52;;;13.40;99.90;;;;;;5051132;28;20021;-66
2022/12/30 12:50:29;;;;;;;7.82;1.17;;;13.60;99.90;;;;;;5067331;28;20035;-65
2022/12/30 12:53:26;;;;;;;9.27;1.58;;;13.70;99.90;;;;;;5068921;28;20036;-70
2022/12/30 12:56:01;;;;;;;4.43;1.55;;;13.80;99.90;;;;;;5066854;28;20469;-66
2022/12/30 12:58:51;;;;;;;8.45;1.38;;;13.50;99.90;;;;;;5065316;28;20509;-66
2022/12/30 13:01:41;;;;;;;12.20;1.35;;;13.20;99.90;;;;;;5061940;28;20051;-66
2022/12/30 13:04:28;;;;;;;4.32;1.05;;;13.30;99.90;;;;;;5065814;28;20040;-67
2022/12/30 13:07:07;;;;;;;8.75;1.08;;;13.50;99.90;;;;;;5071010;28;20035;-68
2022/12/30 13:09:56;;;;;;;5.93;0.90;;;13.30;99.90;;;;;;5070994;28;20534;-66
2022/12/30 13:12:24;;;;;;;7.07;1.23;;;13.40;99.90;;;;;;5070571;28;20051;-65
2022/12/30 13:14:54;;;;;;;8.73;1.08;;;13.60;99.90;;;;;;5068099;28;20020;-66
2022/12/30 13:17:41;;;;;;;5.90;0.82;;;13.50;99.90;;;;;;5071277;28;20043;-65
2022/12/30 13:20:15;;;;;;;11.98;1.83;;;13.50;99.90;;;;;;5069110;28;20027;-64
2022/12/30 13:22:41;;;;;;;4.80;0.93;;;13.80;99.90;;;;;;5075104;28;20036;-66
2022/12/30 13:25:18;;;;;;;4.30;0.82;;;13.70;99.70;;;;;;5074986;28;20099;-66
2022/12/30 13:27:46;;;;;;;5.13;0.65;;;13.70;99.50;;;;;;5071968;28;20040;-68
2022/12/30 13:30:17;;;;;;;1.90;0.50;;;13.60;99.60;;;;;;5072431;28;20563;-65
2022/12/30 13:33:08;;;;;;;6.65;0.90;;;13.60;99.60;;;;;;5072851;28;20464;-67
2022/12/30 13:36:03;;;;;;;2.35;0.50;;;13.80;99.70;;;;;;5074118;28;20104;-69
2022/12/30 13:38:38;;;;;;;5.78;0.70;;;14.10;99.60;;;;;;5070931;28;20040;-66
2022/12/30 13:41:15;;;;;;;2.45;0.65;;;14.10;99.30;;;;;;5073758;28;20036;-65
2022/12/30 13:43:44;;;;;;;11.48;0.77;;;14.20;99.20;;;;;;5072991;28;20119;-67
2022/12/30 13:46:24;;;;;;;2.33;0.77;;;14.20;99.10;;;;;;5072561;28;20085;-65
2022/12/30 13:48:59;;;;;;;2.95;0.70;;;14.20;99.00;;;;;;5073561;28;20478;-66
2022/12/30 13:51:26;;;;;;;2.70;0.85;;;14.40;98.80;;;;;;5073435;28;20025;-66
2022/12/30 13:53:56;;;;;;;1.70;0.65;;;14.30;98.70;;;;;;5073797;28;20081;-66
2022/12/30 13:56:40;;;;;;;5.45;0.52;;;14.20;98.70;;;;;;5073280;28;20025;-66
2022/12/30 13:59:20;;;;;;;2.35;0.57;;;14.20;98.70;;;;;;5073394;28;20100;-65
2022/12/30 14:01:45;;;;;;;3.42;0.55;;;14.20;98.80;;;;;;5073082;28;20029;-66
2022/12/30 14:04:11;;;;;;;1.73;0.30;;;14.10;98.70;;;;;;5073422;28;20024;-65